createdAt,value
2023-01-25T00:00:28.487Z,102735.84
2023-01-25T00:05:28.703Z,102733.25
2023-01-25T00:10:27.485Z,102732.31
2023-01-25T00:15:26.263Z,102732.28
2023-01-25T00:20:25.077Z,102738.41
2023-01-25T00:25:25.227Z,102736.72
2023-01-25T00:30:23.913Z,102731.47
2023-01-25T00:35:24.623Z,102723.63
2023-01-25T00:40:24.669Z,102720.94
2023-01-25T00:45:23.644Z,102726.19
2023-01-25T00:50:22.414Z,102728.69
2023-01-25T00:55:21.112Z,102733.84
2023-01-25T01:00:22.541Z,102716.44
2023-01-25T01:05:21.540Z,102718.13
2023-01-25T01:10:22.882Z,102718.84
2023-01-25T01:15:24.855Z,102718.91
2023-01-25T01:20:23.912Z,102722.50
2023-01-25T01:25:24.309Z,102713.81
2023-01-25T01:30:25.910Z,102713.00
2023-01-25T01:35:24.678Z,102712.03
2023-01-25T01:40:25.084Z,102714.69
2023-01-25T01:45:52.200Z,102707.69
2023-01-25T01:51:01.752Z,102705.84
2023-01-25T01:56:03.886Z,102701.44
2023-01-25T02:01:04.345Z,102700.63
2023-01-25T02:06:06.535Z,102693.69
2023-01-25T02:11:06.344Z,102689.34
2023-01-25T02:16:11.997Z,102683.34
2023-01-25T02:21:12.118Z,102682.47
2023-01-25T02:26:12.598Z,102677.19
2023-01-25T02:31:11.537Z,102677.94
2023-01-25T02:36:23.414Z,102680.34
2023-01-25T02:41:28.319Z,102679.56
2023-01-25T02:46:31.881Z,102683.16
2023-01-25T02:51:33.148Z,102678.88
2023-01-25T02:56:34.237Z,102678.06
2023-01-25T03:01:34.356Z,102671.94
2023-01-25T03:06:34.621Z,102681.50
2023-01-25T03:11:35.495Z,102683.22
2023-01-25T03:16:34.468Z,102679.69
2023-01-25T03:21:34.426Z,102687.44
2023-01-25T03:26:55.429Z,102678.81
2023-01-25T03:31:59.129Z,102681.41
2023-01-25T03:36:58.158Z,102677.91
2023-01-25T03:41:58.743Z,102672.69
2023-01-25T03:46:57.817Z,102672.69
2023-01-25T03:51:58.126Z,102675.34
2023-01-25T03:57:08.631Z,102678.03
2023-01-25T04:02:17.039Z,102684.91
2023-01-25T04:07:15.875Z,102677.94
2023-01-25T04:12:16.642Z,102684.88
2023-01-25T04:17:15.819Z,102676.16
2023-01-25T04:22:34.938Z,102682.22
2023-01-25T04:27:36.812Z,102675.34
2023-01-25T04:32:40.387Z,102681.50
2023-01-25T04:38:00.819Z,102693.63
2023-01-25T04:43:08.845Z,102693.63
2023-01-25T04:48:09.993Z,102703.13
2023-01-25T04:53:12.997Z,102697.84
2023-01-25T04:58:13.534Z,102693.28
2023-01-25T05:03:13.367Z,102696.69
2023-01-25T05:08:13.201Z,102698.38
2023-01-25T05:13:13.503Z,102691.47
2023-01-25T05:18:12.550Z,102682.88
2023-01-25T05:23:11.632Z,102682.91
2023-01-25T05:28:11.030Z,102692.44
2023-01-25T05:33:49.678Z,102688.97
2023-01-25T05:38:50.373Z,102697.66
2023-01-25T05:43:50.296Z,102691.69
2023-01-25T05:48:51.149Z,102692.63
2023-01-25T05:53:50.760Z,102693.22
2023-01-25T05:58:54.403Z,102696.81
2023-01-25T06:03:55.179Z,102702.94
2023-01-25T06:08:56.397Z,102699.56
2023-01-25T06:13:55.300Z,102702.25
2023-01-25T06:18:55.426Z,102712.66
2023-01-25T06:24:16.894Z,102710.84
2023-01-25T06:29:15.820Z,102711.63
2023-01-25T06:34:17.098Z,102717.72
2023-01-25T06:39:16.044Z,102712.22
2023-01-25T06:44:14.724Z,102715.75
2023-01-25T06:49:13.466Z,102715.84
2023-01-25T06:54:13.553Z,102716.72
2023-01-25T06:59:12.265Z,102719.41
2023-01-25T07:04:12.420Z,102719.53
2023-01-25T07:09:14.905Z,102727.34
2023-01-25T07:14:13.619Z,102730.88
2023-01-25T07:19:14.165Z,102735.16
2023-01-25T07:24:21.162Z,102733.13
2023-01-25T07:29:20.271Z,102733.25
2023-01-25T07:34:19.078Z,102732.50
2023-01-25T07:39:19.234Z,102737.63
2023-01-25T07:44:18.007Z,102735.16
2023-01-25T07:49:21.225Z,102738.66
2023-01-25T07:54:21.572Z,102735.13
2023-01-25T07:59:20.380Z,102743.81
2023-01-25T08:04:19.378Z,102742.16
2023-01-25T08:09:20.674Z,102740.56
2023-01-25T08:14:20.988Z,102736.25
2023-01-25T08:19:20.398Z,102730.00
2023-01-25T08:24:20.834Z,102726.53
2023-01-25T08:29:21.233Z,102723.13
2023-01-25T08:34:19.990Z,102726.75
2023-01-25T08:39:19.015Z,102724.16
2023-01-25T08:44:22.640Z,102721.41
2023-01-25T08:49:22.976Z,102723.16
2023-01-25T08:54:21.769Z,102716.38
2023-01-25T08:59:20.498Z,102710.25
2023-01-25T09:04:19.358Z,102711.91
2023-01-25T09:09:19.707Z,102704.03
2023-01-25T09:14:18.456Z,102705.72
2023-01-25T09:19:18.545Z,102695.41
2023-01-25T09:24:17.310Z,102692.97
2023-01-25T09:29:17.485Z,102693.69
2023-01-25T09:34:17.271Z,102680.59
2023-01-25T09:39:16.125Z,102674.59
2023-01-25T09:44:31.672Z,102656.44
2023-01-25T09:49:46.962Z,102659.19
2023-01-25T09:54:48.512Z,102657.56
2023-01-25T09:59:51.376Z,102654.88
2023-01-25T10:04:52.583Z,102643.50
2023-01-25T10:10:01.846Z,102635.69
2023-01-25T10:15:02.204Z,102632.22
2023-01-25T10:20:21.439Z,102628.75
2023-01-25T10:25:33.287Z,102617.59
2023-01-25T10:30:41.624Z,102622.78
2023-01-25T10:35:47.197Z,102614.09
2023-01-25T10:40:53.894Z,102599.34
2023-01-25T10:45:54.054Z,102586.34
2023-01-25T10:50:54.931Z,102570.81
2023-01-25T10:56:20.184Z,102556.09
2023-01-25T11:01:32.647Z,102549.16
2023-01-25T11:06:36.707Z,102530.75
2023-01-25T11:11:40.655Z,102525.44
2023-01-25T11:16:42.519Z,102512.59
2023-01-25T11:21:53.660Z,102486.53
2023-01-25T11:26:52.519Z,102489.81
2023-01-25T11:31:57.863Z,102500.13
2023-01-25T11:37:18.069Z,102492.47
2023-01-25T11:42:29.476Z,102488.22
2023-01-25T11:47:40.874Z,102483.91
2023-01-25T11:52:56.656Z,102476.13
2023-01-25T11:58:28.094Z,102470.88
2023-01-25T12:04:12.372Z,102468.28
2023-01-25T12:09:26.257Z,102464.84
2023-01-25T12:14:32.282Z,102457.88
2023-01-25T12:19:48.296Z,102459.59
2023-01-25T12:24:57.036Z,102451.81
2023-01-25T12:30:00.205Z,102450.03
2023-01-25T12:35:23.132Z,102452.56
2023-01-25T12:40:38.365Z,102446.56
2023-01-25T12:45:39.790Z,102435.22
2023-01-25T12:50:46.639Z,102432.59
2023-01-25T12:55:46.355Z,102440.44
2023-01-25T13:00:53.996Z,102430.03
2023-01-25T13:05:58.206Z,102432.66
2023-01-25T13:11:09.402Z,102443.06
2023-01-25T13:16:43.332Z,102432.66
2023-01-25T13:21:47.474Z,102429.16
2023-01-25T13:27:05.017Z,102433.50
2023-01-25T13:32:05.994Z,102429.09
2023-01-25T13:37:19.143Z,102430.06
2023-01-25T13:42:24.075Z,102425.72
2023-01-25T13:47:25.385Z,102423.13
2023-01-25T13:52:27.130Z,102423.97
2023-01-25T13:57:28.048Z,102417.03
2023-01-25T14:02:27.878Z,102423.09
2023-01-25T14:07:34.061Z,102417.88
2023-01-25T14:12:37.748Z,102411.81
2023-01-25T14:17:36.286Z,102418.75
2023-01-25T14:22:36.883Z,102412.59
2023-01-25T14:27:36.925Z,102414.38
2023-01-25T14:32:37.036Z,102409.16
2023-01-25T14:37:43.758Z,102415.25
2023-01-25T14:42:42.619Z,102408.28
2023-01-25T14:47:45.267Z,102405.69
2023-01-25T14:52:48.600Z,102402.16
2023-01-25T14:57:49.405Z,102399.56
2023-01-25T15:02:51.195Z,102396.84
2023-01-25T15:07:53.134Z,102398.63
2023-01-25T15:13:13.753Z,102405.53
2023-01-25T15:18:47.217Z,102399.56
2023-01-25T15:23:49.349Z,102402.16
2023-01-25T15:28:50.491Z,102406.47
2023-01-25T15:33:49.639Z,102405.66
2023-01-25T15:38:49.869Z,102408.22
2023-01-25T15:43:49.740Z,102405.63
2023-01-25T15:48:50.595Z,102408.25
2023-01-25T15:53:51.182Z,102404.78
2023-01-25T15:58:53.074Z,102401.31
2023-01-25T16:03:51.990Z,102405.66
2023-01-25T16:08:52.255Z,102399.56
2023-01-25T16:13:51.419Z,102397.81
2023-01-25T16:18:50.693Z,102399.53
2023-01-25T16:23:49.447Z,102398.69
2023-01-25T16:28:49.577Z,102400.44
2023-01-25T16:33:48.383Z,102392.66
2023-01-25T16:38:47.646Z,102389.13
2023-01-25T16:43:48.077Z,102384.78
2023-01-25T16:48:50.077Z,102386.50
2023-01-25T16:53:49.951Z,102398.69
2023-01-25T16:58:49.699Z,102394.38
2023-01-25T17:03:49.926Z,102396.97
2023-01-25T17:08:49.520Z,102387.44
2023-01-25T17:13:51.701Z,102381.34
2023-01-25T17:18:55.552Z,102383.06
2023-01-25T17:23:55.321Z,102381.34
2023-01-25T17:28:56.560Z,102370.09
2023-01-25T17:33:57.302Z,102372.66
2023-01-25T17:38:56.194Z,102373.53
2023-01-25T17:43:55.137Z,102367.44
2023-01-25T17:48:54.437Z,102360.50
2023-01-25T17:53:54.806Z,102347.47
2023-01-25T17:58:54.001Z,102341.34
2023-01-25T18:03:54.590Z,102344.72
2023-01-25T18:08:57.203Z,102346.44
2023-01-25T18:13:58.428Z,102343.88
2023-01-25T18:18:59.289Z,102342.19
2023-01-25T18:24:02.000Z,102343.88
2023-01-25T18:29:21.238Z,102340.31
2023-01-25T18:34:20.027Z,102336.84
2023-01-25T18:39:20.242Z,102334.22
2023-01-25T18:44:20.003Z,102322.09
2023-01-25T18:49:18.965Z,102319.47
2023-01-25T18:54:19.247Z,102326.41
2023-01-25T18:59:18.088Z,102321.19
2023-01-25T19:04:17.308Z,102307.34
2023-01-25T19:09:16.158Z,102300.47
2023-01-25T19:14:16.575Z,102298.72
2023-01-25T19:19:16.038Z,102296.13
2023-01-25T19:24:19.710Z,102291.81
2023-01-25T19:29:20.061Z,102285.75
2023-01-25T19:34:18.857Z,102289.22
2023-01-25T19:39:19.558Z,102277.94
2023-01-25T19:44:21.044Z,102287.53
2023-01-25T19:49:20.928Z,102281.41
2023-01-25T19:54:21.198Z,102276.22
2023-01-25T19:59:25.276Z,102277.97
2023-01-25T20:04:25.364Z,102277.94
2023-01-25T20:09:28.154Z,102274.47
2023-01-25T20:14:28.677Z,102269.25
2023-01-25T20:19:28.237Z,102265.81
2023-01-25T20:24:29.349Z,102266.69
2023-01-25T20:29:31.132Z,102270.19
2023-01-25T20:34:30.815Z,102251.94
2023-01-25T20:39:33.657Z,102256.25
2023-01-25T20:44:34.239Z,102266.69
2023-01-25T20:49:33.557Z,102245.88
2023-01-25T20:54:32.345Z,102229.41
2023-01-25T20:59:31.131Z,102231.97
2023-01-25T21:04:31.261Z,102237.13
2023-01-25T21:09:30.593Z,102223.22
2023-01-25T21:14:29.398Z,102218.03
2023-01-25T21:19:28.247Z,102225.84
2023-01-25T21:24:28.339Z,102220.63
2023-01-25T21:29:27.159Z,102219.78
2023-01-25T21:34:25.976Z,102208.56
2023-01-25T21:39:24.736Z,102212.00
2023-01-25T21:44:42.383Z,102214.59
2023-01-25T21:50:00.604Z,102211.97
2023-01-25T21:54:59.590Z,102212.84
2023-01-25T21:59:59.856Z,102207.66
2023-01-25T22:04:58.621Z,102184.25
2023-01-25T22:09:57.400Z,102195.53
2023-01-25T22:14:56.102Z,102179.75
2023-01-25T22:19:56.353Z,102178.06
2023-01-25T22:24:56.855Z,102182.41
2023-01-25T22:29:55.747Z,102174.63
2023-01-25T22:34:56.209Z,102162.50
2023-01-25T22:39:58.548Z,102157.28
2023-01-25T22:44:57.430Z,102157.31
2023-01-25T22:49:57.693Z,102152.97
2023-01-25T22:54:56.385Z,102148.66
2023-01-25T22:59:55.212Z,102133.06
2023-01-25T23:04:54.313Z,102127.81
2023-01-25T23:09:54.513Z,102115.69
2023-01-25T23:14:54.058Z,102113.06
2023-01-25T23:19:52.958Z,102103.56
2023-01-25T23:24:51.671Z,102100.03
2023-01-25T23:29:52.377Z,102099.19
2023-01-25T23:34:53.338Z,102102.69
2023-01-25T23:39:52.165Z,102082.72
2023-01-25T23:44:52.668Z,102083.63
2023-01-25T23:49:51.489Z,102074.97
2023-01-25T23:54:50.431Z,102072.34
2023-01-25T23:59:49.288Z,102082.75
